createdAt,value
2019-03-16T00:02:03.010Z,95102.73
2019-03-16T00:04:52.054Z,95103.02
2019-03-16T00:07:40.640Z,95116.03
2019-03-16T00:10:29.173Z,95105.98
2019-03-16T00:13:17.750Z,95115.94
2019-03-16T00:16:06.205Z,95116.03
2019-03-16T00:18:54.796Z,95115.63
2019-03-16T00:21:43.534Z,95131.69
2019-03-16T00:24:33.064Z,95128.13
2019-03-16T00:27:21.358Z,95128.22
2019-03-16T00:30:10.146Z,95116.00
2019-03-16T00:32:58.508Z,95126.48
2019-03-16T00:35:47.391Z,95105.31
2019-03-16T00:38:36.195Z,95122.23
2019-03-16T00:41:24.369Z,95102.70
2019-03-16T00:44:13.442Z,95115.85
2019-03-16T00:47:02.500Z,95110.34
2019-03-16T00:49:51.207Z,95128.53
2019-03-16T00:52:40.724Z,95100.02
2019-03-16T00:55:29.860Z,95104.39
2019-03-16T00:58:18.567Z,95097.81
2019-03-16T01:01:07.555Z,95108.23
2019-03-16T01:03:56.512Z,95116.01
2019-03-16T01:06:45.748Z,95100.81
2019-03-16T01:09:34.237Z,95100.39
2019-03-16T01:12:22.667Z,95107.08
2019-03-16T01:15:11.512Z,95110.12
2019-03-16T01:18:00.255Z,95116.13
2019-03-16T01:20:49.016Z,95119.70
2019-03-16T01:23:38.007Z,95130.05
2019-03-16T01:26:26.783Z,95142.28
2019-03-16T01:29:15.375Z,95136.06
2019-03-16T01:32:04.023Z,95132.96
2019-03-16T01:34:52.806Z,95119.70
2019-03-16T01:37:41.402Z,95123.14
2019-03-16T01:40:31.280Z,95110.52
2019-03-16T01:43:20.065Z,95117.84
2019-03-16T01:46:10.363Z,95130.42
2019-03-16T01:51:16.138Z,95131.66
2019-03-16T01:54:05.149Z,95127.02
2019-03-16T01:56:54.017Z,95136.03
2019-03-16T01:59:42.737Z,95128.22
2019-03-16T02:02:30.775Z,95143.03
2019-03-16T02:05:19.999Z,95138.67
2019-03-16T02:08:09.758Z,95152.15
2019-03-16T02:10:58.925Z,95155.59
2019-03-16T02:13:47.697Z,95153.55
2019-03-16T02:16:36.328Z,95143.47
2019-03-16T02:19:24.500Z,95149.48
2019-03-16T02:22:12.885Z,95136.47
2019-03-16T02:25:01.785Z,95139.07
2019-03-16T02:27:51.398Z,95151.77
2019-03-16T02:30:40.480Z,95147.34
2019-03-16T02:33:28.812Z,95154.28
2019-03-16T02:36:17.756Z,95142.48
2019-03-16T02:39:07.486Z,95160.80
2019-03-16T02:41:59.293Z,95138.67
2019-03-16T02:44:47.819Z,95144.27
2019-03-16T02:47:36.439Z,95128.25
2019-03-16T02:50:24.632Z,95138.79
2019-03-16T02:53:13.242Z,95128.34
2019-03-16T02:56:01.798Z,95147.03
2019-03-16T02:58:50.108Z,95137.61
2019-03-16T03:01:38.673Z,95147.52
2019-03-16T03:04:27.145Z,95149.32
2019-03-16T03:07:16.182Z,95140.30
2019-03-16T03:10:05.082Z,95150.62
2019-03-16T03:12:53.751Z,95147.09
2019-03-16T03:15:42.922Z,95151.43
2019-03-16T03:18:31.724Z,95151.49
2019-03-16T03:21:20.563Z,95139.06
2019-03-16T03:24:09.461Z,95147.62
2019-03-16T03:26:57.945Z,95151.03
2019-03-16T03:29:45.967Z,95149.91
2019-03-16T03:32:34.726Z,95151.03
2019-03-16T03:35:28.952Z,95131.16
2019-03-16T03:38:13.249Z,95159.42
2019-03-16T03:41:02.468Z,95158.61
2019-03-16T03:43:51.403Z,95138.97
2019-03-16T03:46:40.238Z,95148.89
2019-03-16T03:49:29.431Z,95156.14
2019-03-16T03:52:18.017Z,95159.73
2019-03-16T03:55:07.257Z,95165.34
2019-03-16T03:57:55.568Z,95154.91
2019-03-16T04:00:44.063Z,95151.80
2019-03-16T04:03:32.721Z,95159.58
2019-03-16T04:06:21.255Z,95172.66
2019-03-16T04:09:10.106Z,95173.96
2019-03-16T04:11:58.951Z,95171.02
2019-03-16T04:14:47.729Z,95190.63
2019-03-16T04:17:35.890Z,95186.75
2019-03-16T04:20:25.385Z,95193.58
2019-03-16T04:23:13.668Z,95200.98
2019-03-16T04:26:01.826Z,95189.76
2019-03-16T04:28:50.430Z,95191.44
2019-03-16T04:31:38.795Z,95195.84
2019-03-16T04:34:29.481Z,95192.05
2019-03-16T04:37:17.284Z,95185.14
2019-03-16T04:40:06.719Z,95201.63
2019-03-16T04:42:55.120Z,95172.21
2019-03-16T04:45:44.821Z,95181.31
2019-03-16T04:48:33.628Z,95192.13
2019-03-16T04:51:22.710Z,95195.31
2019-03-16T04:54:11.239Z,95201.88
2019-03-16T04:56:59.297Z,95195.23
2019-03-16T04:59:47.596Z,95191.23
2019-03-16T05:02:39.210Z,95205.61
2019-03-16T05:05:27.974Z,95199.05
2019-03-16T05:08:16.333Z,95199.11
2019-03-16T05:11:05.509Z,95197.40
2019-03-16T05:13:54.040Z,95195.55
2019-03-16T05:16:42.899Z,95195.95
2019-03-16T05:19:31.368Z,95209.37
2019-03-16T05:22:19.837Z,95202.38
2019-03-16T05:25:08.525Z,95193.23
2019-03-16T05:27:56.592Z,95200.58
2019-03-16T05:30:44.767Z,95198.28
2019-03-16T05:33:33.002Z,95197.08
2019-03-16T05:36:22.084Z,95196.49
2019-03-16T05:39:10.960Z,95193.43
2019-03-16T05:41:59.242Z,95177.37
2019-03-16T05:44:48.043Z,95196.81
2019-03-16T05:47:36.615Z,95199.76
2019-03-16T05:50:26.237Z,95191.02
2019-03-16T05:53:15.109Z,95206.15
2019-03-16T05:56:04.190Z,95200.94
2019-03-16T05:58:53.095Z,95198.74
2019-03-16T06:01:41.595Z,95199.17
2019-03-16T06:04:30.412Z,95193.94
2019-03-16T06:07:18.936Z,95201.16
2019-03-16T06:10:08.722Z,95205.16
2019-03-16T06:12:57.592Z,95214.21
2019-03-16T06:15:46.239Z,95218.09
2019-03-16T06:18:36.737Z,95216.41
2019-03-16T06:21:25.749Z,95215.98
2019-03-16T06:24:14.148Z,95230.33
2019-03-16T06:27:02.722Z,95235.05
2019-03-16T06:29:50.819Z,95240.20
2019-03-16T06:32:39.388Z,95254.05
2019-03-16T06:35:29.525Z,95243.20
2019-03-16T06:38:17.886Z,95254.92
2019-03-16T06:41:06.826Z,95253.27
2019-03-16T06:43:55.675Z,95257.06
2019-03-16T06:46:44.535Z,95257.99
2019-03-16T06:49:33.293Z,95254.86
2019-03-16T06:52:22.124Z,95269.70
2019-03-16T06:55:10.809Z,95265.34
2019-03-16T06:57:59.412Z,95276.77
2019-03-16T07:00:48.351Z,95282.81
2019-03-16T07:03:37.636Z,95288.48
2019-03-16T07:06:26.456Z,95296.19
2019-03-16T07:09:15.301Z,95289.13
2019-03-16T07:12:03.811Z,95292.22
2019-03-16T07:14:52.239Z,95303.91
2019-03-16T07:17:41.203Z,95309.96
2019-03-16T07:20:29.192Z,95304.14
2019-03-16T07:23:17.986Z,95307.19
2019-03-16T07:26:14.638Z,95315.72
2019-03-16T07:28:56.842Z,95313.52
2019-03-16T07:31:45.663Z,95314.30
2019-03-16T07:34:34.521Z,95311.14
2019-03-16T07:37:22.969Z,95326.34
2019-03-16T07:40:11.839Z,95328.95
2019-03-16T07:43:00.812Z,95343.19
2019-03-16T07:45:49.485Z,95343.94
2019-03-16T07:48:37.959Z,95343.05
2019-03-16T07:51:26.728Z,95344.31
2019-03-16T07:54:15.904Z,95347.67
2019-03-16T07:57:04.115Z,95346.28
2019-03-16T07:59:52.268Z,95340.95
2019-03-16T08:02:41.452Z,95349.02
2019-03-16T08:05:30.299Z,95339.91
2019-03-16T08:08:19.502Z,95344.50
2019-03-16T08:11:08.101Z,95339.72
2019-03-16T08:13:56.988Z,95330.91
2019-03-16T08:16:45.208Z,95341.16
2019-03-16T08:19:35.074Z,95351.30
2019-03-16T08:22:23.917Z,95357.02
2019-03-16T08:25:12.855Z,95340.53
2019-03-16T08:28:01.942Z,95330.31
2019-03-16T08:30:50.330Z,95329.20
2019-03-16T08:33:41.348Z,95321.69
2019-03-16T08:36:29.987Z,95326.44
2019-03-16T08:39:18.622Z,95325.34
2019-03-16T08:42:06.694Z,95340.84
2019-03-16T08:44:55.532Z,95328.94
2019-03-16T08:47:44.104Z,95325.73
2019-03-16T08:50:32.744Z,95329.22
2019-03-16T08:53:22.918Z,95338.69
2019-03-16T08:56:11.434Z,95346.91
2019-03-16T08:59:00.008Z,95342.06
2019-03-16T09:01:49.127Z,95325.41
2019-03-16T09:04:37.664Z,95345.99
2019-03-16T09:07:26.382Z,95355.03
2019-03-16T09:10:15.184Z,95355.46
2019-03-16T09:13:04.027Z,95363.36
2019-03-16T09:15:52.748Z,95374.79
2019-03-16T09:18:41.729Z,95355.73
2019-03-16T09:21:30.444Z,95358.25
2019-03-16T09:24:19.309Z,95361.09
2019-03-16T09:27:07.963Z,95365.44
2019-03-16T09:29:57.316Z,95371.97
2019-03-16T09:32:46.008Z,95380.20
2019-03-16T09:35:34.387Z,95379.86
2019-03-16T09:38:23.228Z,95367.61
2019-03-16T09:41:12.379Z,95366.34
2019-03-16T09:44:02.179Z,95366.45
2019-03-16T09:46:51.610Z,95373.34
2019-03-16T09:49:40.080Z,95366.65
2019-03-16T09:52:30.203Z,95382.81
2019-03-16T09:55:18.808Z,95373.64
2019-03-16T09:58:07.623Z,95378.30
2019-03-16T10:00:56.417Z,95385.59
2019-03-16T10:03:44.927Z,95368.05
2019-03-16T10:06:33.701Z,95376.75
2019-03-16T10:09:22.913Z,95390.34
2019-03-16T10:12:29.936Z,95383.72
2019-03-16T10:15:18.809Z,95373.87
2019-03-16T10:18:07.433Z,95367.09
2019-03-16T10:20:55.779Z,95367.15
2019-03-16T10:23:44.795Z,95364.01
2019-03-16T10:26:33.395Z,95370.06
2019-03-16T10:29:58.509Z,95360.27
2019-03-16T10:32:47.490Z,95365.57
2019-03-16T10:35:36.482Z,95354.56
2019-03-16T10:38:25.383Z,95370.22
2019-03-16T10:41:13.720Z,95344.92
2019-03-16T10:44:02.413Z,95336.74
2019-03-16T10:46:50.778Z,95347.59
2019-03-16T10:49:39.446Z,95332.45
2019-03-16T10:52:28.258Z,95322.56
2019-03-16T10:55:16.725Z,95312.45
2019-03-16T10:58:05.360Z,95323.69
2019-03-16T11:00:53.681Z,95305.95
2019-03-16T11:03:42.671Z,95303.52
2019-03-16T11:06:31.598Z,95321.72
2019-03-16T11:13:27.405Z,95318.88
2019-03-16T11:16:16.395Z,95316.11
2019-03-16T11:19:05.645Z,95325.02
2019-03-16T11:21:54.902Z,95310.11
2019-03-16T11:24:43.958Z,95309.55
2019-03-16T11:27:32.901Z,95306.13
2019-03-16T11:30:21.746Z,95301.14
2019-03-16T11:33:10.406Z,95295.92
2019-03-16T11:35:59.041Z,95295.16
2019-03-16T11:38:47.425Z,95292.23
2019-03-16T11:41:36.267Z,95287.65
2019-03-16T11:44:24.384Z,95318.78
2019-03-16T11:47:13.151Z,95300.80
2019-03-16T11:50:01.917Z,95294.25
2019-03-16T11:52:50.068Z,95286.31
2019-03-16T11:55:38.666Z,95307.22
2019-03-16T11:58:27.757Z,95278.02
2019-03-16T12:01:16.609Z,95267.28
2019-03-16T12:04:05.572Z,95274.61
2019-03-16T12:06:54.111Z,95252.53
2019-03-16T12:09:42.543Z,95238.30
2019-03-16T12:12:31.262Z,95236.20
2019-03-16T12:15:20.160Z,95237.77
2019-03-16T12:18:09.299Z,95246.20
2019-03-16T12:20:57.658Z,95238.69
2019-03-16T12:23:46.177Z,95235.55
2019-03-16T12:26:35.316Z,95218.91
2019-03-16T12:29:33.631Z,95221.37
2019-03-16T12:32:14.451Z,95207.31
2019-03-16T12:35:03.122Z,95212.89
2019-03-16T12:37:52.215Z,95218.52
2019-03-16T12:40:40.989Z,95202.45
2019-03-16T12:43:29.843Z,95202.54
2019-03-16T12:46:18.821Z,95199.31
2019-03-16T12:49:07.317Z,95199.44
2019-03-16T12:51:55.961Z,95183.20
2019-03-16T12:54:44.332Z,95194.56
2019-03-16T12:57:33.554Z,95188.70
2019-03-16T13:00:22.669Z,95180.20
2019-03-16T13:03:11.667Z,95172.41
2019-03-16T13:06:00.171Z,95165.97
2019-03-16T13:08:48.585Z,95162.45
2019-03-16T13:11:37.318Z,95160.95
2019-03-16T13:14:26.026Z,95151.53
2019-03-16T13:17:14.164Z,95139.21
2019-03-16T13:20:02.908Z,95136.22
2019-03-16T13:22:51.246Z,95132.58
2019-03-16T13:25:40.457Z,95125.30
2019-03-16T13:28:29.842Z,95124.56
2019-03-16T13:31:18.351Z,95113.09
2019-03-16T13:34:07.384Z,95113.88
2019-03-16T13:36:56.024Z,95114.35
2019-03-16T13:39:45.287Z,95102.55
2019-03-16T13:42:34.286Z,95111.88
2019-03-16T13:45:22.931Z,95103.23
2019-03-16T13:48:11.385Z,95110.20
2019-03-16T13:51:00.372Z,95103.70
2019-03-16T13:53:49.112Z,95105.00
2019-03-16T13:56:37.782Z,95102.41
2019-03-16T13:59:26.502Z,95106.73
2019-03-16T14:02:15.504Z,95100.16
2019-03-16T14:05:04.955Z,95091.97
2019-03-16T14:07:53.695Z,95089.41
2019-03-16T14:10:42.380Z,95083.94
2019-03-16T14:13:31.360Z,95083.06
2019-03-16T14:16:19.934Z,95075.08
2019-03-16T14:19:08.811Z,95079.73
2019-03-16T14:21:58.215Z,95070.36
2019-03-16T14:24:46.871Z,95068.45
2019-03-16T14:27:35.831Z,95066.45
2019-03-16T14:30:39.782Z,95060.53
2019-03-16T14:33:14.787Z,95053.70
2019-03-16T14:36:03.430Z,95052.16
2019-03-16T14:38:51.651Z,95041.44
2019-03-16T14:41:40.074Z,95032.98
2019-03-16T14:44:28.490Z,95030.78
2019-03-16T14:47:17.297Z,95046.34
2019-03-16T14:50:06.969Z,95045.44
2019-03-16T14:52:55.186Z,95030.59
2019-03-16T14:55:44.409Z,95035.23
2019-03-16T14:58:33.007Z,95035.86
2019-03-16T15:01:21.421Z,95038.45
2019-03-16T15:04:10.358Z,95024.06
2019-03-16T15:06:59.504Z,95029.27
2019-03-16T15:09:48.490Z,95029.42
2019-03-16T15:12:37.870Z,95023.91
2019-03-16T15:15:26.391Z,95035.34
2019-03-16T15:18:14.962Z,95026.52
2019-03-16T15:21:04.102Z,95021.77
2019-03-16T15:23:53.444Z,95023.09
2019-03-16T15:26:42.380Z,95019.32
2019-03-16T15:29:31.454Z,95013.49
2019-03-16T15:32:20.413Z,95012.50
2019-03-16T15:35:09.706Z,95013.41
2019-03-16T15:37:58.600Z,95015.89
2019-03-16T15:40:47.692Z,95018.84
2019-03-16T15:43:36.264Z,95004.97
2019-03-16T15:46:24.776Z,95004.90
2019-03-16T15:49:13.980Z,94999.94
2019-03-16T15:52:03.209Z,94997.84
2019-03-16T15:54:51.542Z,94998.74
2019-03-16T15:57:42.487Z,94994.23
2019-03-16T16:00:31.238Z,94989.23
2019-03-16T16:03:19.980Z,94988.23
2019-03-16T16:06:09.096Z,94990.63
2019-03-16T16:08:57.499Z,94979.42
2019-03-16T16:11:46.257Z,94975.05
2019-03-16T16:14:35.489Z,94972.41
2019-03-16T16:17:24.245Z,94968.34
2019-03-16T16:20:13.605Z,94969.77
2019-03-16T16:23:02.296Z,94954.88
2019-03-16T16:25:50.808Z,94958.17
2019-03-16T16:28:39.794Z,94959.69
2019-03-16T16:31:28.768Z,94952.80
2019-03-16T16:34:18.423Z,94954.72
2019-03-16T16:37:07.351Z,94954.39
2019-03-16T16:39:56.302Z,94953.89
2019-03-16T16:42:44.724Z,94951.89
2019-03-16T16:45:33.551Z,94951.89
2019-03-16T16:48:22.060Z,94944.41
2019-03-16T16:51:11.056Z,94942.89
2019-03-16T16:53:59.716Z,94942.08
2019-03-16T16:56:48.085Z,94941.23
2019-03-16T16:59:37.290Z,94945.88
2019-03-16T17:02:26.255Z,94945.88
2019-03-16T17:05:15.656Z,94946.87
2019-03-16T17:08:04.958Z,94949.39
2019-03-16T17:10:55.273Z,94949.34
2019-03-16T17:13:44.757Z,94946.44
2019-03-16T17:16:33.009Z,94949.45
2019-03-16T17:19:25.020Z,94947.34
2019-03-16T17:22:16.835Z,94947.63
2019-03-16T17:25:05.812Z,94944.95
2019-03-16T17:27:54.554Z,94945.38
2019-03-16T17:30:43.112Z,94945.63
2019-03-16T17:33:31.601Z,94945.24
2019-03-16T17:36:22.297Z,94939.92
2019-03-16T17:39:10.597Z,94939.71
2019-03-16T17:41:59.718Z,94941.88
2019-03-16T17:44:50.873Z,94941.17
2019-03-16T17:47:37.815Z,94941.22
2019-03-16T17:50:26.578Z,94940.19
2019-03-16T17:53:16.528Z,94942.48
2019-03-16T17:56:04.820Z,94949.14
2019-03-16T17:58:53.365Z,94947.05
2019-03-16T18:01:53.971Z,94952.87
2019-03-16T18:04:32.561Z,94950.44
2019-03-16T18:07:20.793Z,94953.63
2019-03-16T18:10:09.080Z,94953.71
2019-03-16T18:12:57.812Z,94947.34
2019-03-16T18:15:46.583Z,94946.58
2019-03-16T18:18:35.841Z,94949.61
2019-03-16T18:21:24.778Z,94948.44
2019-03-16T18:24:13.232Z,94949.44
2019-03-16T18:27:02.513Z,94943.41
2019-03-16T18:29:51.303Z,94944.45
2019-03-16T18:32:39.995Z,94942.08
2019-03-16T18:35:28.749Z,94941.25
2019-03-16T18:38:17.806Z,94940.99
2019-03-16T18:41:06.752Z,94940.52
2019-03-16T18:43:56.016Z,94943.91
2019-03-16T18:46:44.897Z,94939.80
2019-03-16T18:49:33.913Z,94940.23
2019-03-16T18:52:22.707Z,94932.52
2019-03-16T18:55:12.159Z,94930.25
2019-03-16T18:58:00.349Z,94922.67
2019-03-16T19:00:50.014Z,94921.89
2019-03-16T19:03:38.513Z,94923.86
2019-03-16T19:06:27.546Z,94916.94
2019-03-16T19:09:16.381Z,94915.03
2019-03-16T19:12:05.759Z,94911.98
2019-03-16T19:14:54.735Z,94915.11
2019-03-16T19:17:43.864Z,94919.20
2019-03-16T19:20:32.560Z,94916.71
2019-03-16T19:23:21.232Z,94909.79
2019-03-16T19:26:10.177Z,94914.84
2019-03-16T19:28:59.604Z,94913.06
2019-03-16T19:31:48.375Z,94905.45
2019-03-16T19:34:37.589Z,94900.34
2019-03-16T19:37:26.570Z,94908.84
2019-03-16T19:40:15.814Z,94904.92
2019-03-16T19:43:04.877Z,94910.59
2019-03-16T19:45:54.252Z,94906.41
2019-03-16T19:48:43.047Z,94907.59
2019-03-16T19:51:33.203Z,94908.38
2019-03-16T19:54:22.462Z,94911.11
2019-03-16T19:57:16.183Z,94908.77
2019-03-16T20:00:02.682Z,94912.24
2019-03-16T20:02:51.973Z,94903.02
2019-03-16T20:05:41.237Z,94897.40
2019-03-16T20:08:30.356Z,94900.61
2019-03-16T20:11:19.429Z,94897.01
2019-03-16T20:14:08.596Z,94895.52
2019-03-16T20:16:57.460Z,94891.47
2019-03-16T20:19:46.407Z,94886.16
2019-03-16T20:22:35.355Z,94890.73
2019-03-16T20:25:24.461Z,94888.06
2019-03-16T20:28:12.891Z,94886.16
2019-03-16T20:31:01.459Z,94885.84
2019-03-16T20:33:50.249Z,94887.40
2019-03-16T20:36:39.063Z,94889.02
2019-03-16T20:39:27.498Z,94886.13
2019-03-16T20:42:16.127Z,94878.48
2019-03-16T20:45:05.384Z,94876.12
2019-03-16T20:47:54.084Z,94873.13
2019-03-16T20:50:43.452Z,94874.30
2019-03-16T20:53:32.512Z,94875.47
2019-03-16T20:56:21.303Z,94872.19
2019-03-16T20:59:09.601Z,94872.57
2019-03-16T21:01:57.889Z,94866.28
2019-03-16T21:04:46.654Z,94868.80
2019-03-16T21:07:35.511Z,94863.65
2019-03-16T21:10:24.224Z,94872.72
2019-03-16T21:13:13.418Z,94861.73
2019-03-16T21:16:02.464Z,94863.03
2019-03-16T21:18:51.101Z,94857.94
2019-03-16T21:21:40.063Z,94854.13
2019-03-16T21:24:29.223Z,94854.27
2019-03-16T21:27:17.919Z,94853.04
2019-03-16T21:30:08.070Z,94856.23
2019-03-16T21:32:56.983Z,94855.41
2019-03-16T21:35:45.635Z,94856.86
2019-03-16T21:38:34.496Z,94860.30
2019-03-16T21:41:23.064Z,94851.28
2019-03-16T21:44:11.734Z,94854.82
2019-03-16T21:47:00.643Z,94858.10
2019-03-16T21:49:49.478Z,94858.63
2019-03-16T21:52:38.380Z,94851.06
2019-03-16T21:55:27.593Z,94852.41
2019-03-16T21:58:16.393Z,94852.64
2019-03-16T22:01:04.817Z,94852.55
2019-03-16T22:03:53.757Z,94850.41
2019-03-16T22:06:43.320Z,94845.19
2019-03-16T22:09:31.805Z,94849.55
2019-03-16T22:12:20.481Z,94844.45
2019-03-16T22:15:09.978Z,94843.37
2019-03-16T22:17:59.081Z,94840.42
2019-03-16T22:20:47.395Z,94842.33
2019-03-16T22:23:35.752Z,94838.07
2019-03-16T22:26:24.807Z,94832.41
2019-03-16T22:29:13.517Z,94836.13
2019-03-16T22:32:02.816Z,94833.34
2019-03-16T22:34:51.295Z,94830.72
2019-03-16T22:37:40.624Z,94827.07
2019-03-16T22:40:29.016Z,94828.69
2019-03-16T22:43:17.645Z,94828.30
2019-03-16T22:46:06.158Z,94819.95
2019-03-16T22:48:55.009Z,94817.55
2019-03-16T22:51:44.444Z,94817.81
2019-03-16T22:54:33.199Z,94815.85
2019-03-16T22:57:22.101Z,94814.20
2019-03-16T23:00:12.077Z,94817.47
2019-03-16T23:03:00.801Z,94812.50
2019-03-16T23:05:49.953Z,94808.06
2019-03-16T23:08:39.338Z,94804.13
2019-03-16T23:11:28.100Z,94809.18
2019-03-16T23:14:16.517Z,94810.14
2019-03-16T23:17:05.451Z,94807.41
2019-03-16T23:19:53.954Z,94805.66
2019-03-16T23:22:42.932Z,94800.09
2019-03-16T23:25:31.289Z,94801.74
2019-03-16T23:28:19.462Z,94792.83
2019-03-16T23:31:08.096Z,94797.22
2019-03-16T23:33:56.944Z,94787.95
2019-03-16T23:36:47.256Z,94782.48
2019-03-16T23:39:36.144Z,94774.17
2019-03-16T23:42:24.766Z,94774.13
2019-03-16T23:45:14.333Z,94775.30
2019-03-16T23:48:03.203Z,94773.99
2019-03-16T23:50:52.335Z,94773.21
2019-03-16T23:53:41.363Z,94768.77
2019-03-16T23:56:29.740Z,94766.95
2019-03-16T23:59:18.123Z,94763.55
